Time;durP1;ratioP1;P1;durP2;ratioP2;P2;SDS_P1;SDS_P2;PMS_P1;PMS_P2;Temp;Humidity;BMP_temperature;BMP_pressure;BME280_temperature;BME280_humidity;BME280_pressure;Samples;Min_cycle;Max_cycle;Signal;HPM_P1;HPM_P2
2023/03/23 00:01:30;;;;;;;9.27;5.32;;;11.70;94.30;;;;;;5052824;28;20021;-65
2023/03/23 00:03:57;;;;;;;9.80;5.10;;;11.70;95.10;;;;;;5053026;28;20363;-65
2023/03/23 00:06:26;;;;;;;8.75;5.10;;;11.70;95.30;;;;;;5053043;28;20116;-65
2023/03/23 00:08:59;;;;;;;10.63;5.65;;;11.80;91.80;;;;;;5053211;28;20052;-65
2023/03/23 00:11:28;;;;;;;13.98;4.72;;;11.70;92.30;;;;;;5053191;28;20035;-65
2023/03/23 00:13:57;;;;;;;12.93;5.15;;;11.80;92.90;;;;;;5053161;28;20029;-65
2023/03/23 00:16:32;;;;;;;8.95;4.85;;;11.70;93.70;;;;;;5052641;28;20138;-65
2023/03/23 00:19:01;;;;;;;8.15;5.13;;;11.70;92.80;;;;;;5056236;28;20029;-65
2023/03/23 00:21:34;;;;;;;7.63;4.80;;;11.70;94.70;;;;;;5056884;28;20021;-65
2023/03/23 00:24:06;;;;;;;9.68;4.72;;;11.80;90.60;;;;;;5057080;28;20029;-65
2023/03/23 00:26:33;;;;;;;13.07;5.25;;;11.70;92.90;;;;;;5056845;28;20040;-65
2023/03/23 00:29:00;;;;;;;8.27;4.68;;;11.70;93.80;;;;;;5056767;28;20025;-65
2023/03/23 00:31:31;;;;;;;11.48;4.32;;;11.80;87.30;;;;;;5056937;28;20036;-65
2023/03/23 00:33:58;;;;;;;7.97;4.32;;;11.80;79.80;;;;;;5056632;28;20028;-65
2023/03/23 00:36:24;;;;;;;7.40;4.15;;;11.80;76.60;;;;;;5056671;28;20119;-65
2023/03/23 00:38:50;;;;;;;6.80;4.60;;;11.80;78.50;;;;;;5056571;28;20028;-65
2023/03/23 00:41:15;;;;;;;7.18;4.28;;;11.80;78.20;;;;;;5056729;28;20383;-66
2023/03/23 00:43:41;;;;;;;8.85;4.85;;;11.80;73.80;;;;;;5056685;28;20060;-65
2023/03/23 00:46:09;;;;;;;9.70;4.00;;;11.80;72.90;;;;;;5056475;28;20025;-65
2023/03/23 00:48:36;;;;;;;8.30;3.97;;;11.80;68.90;;;;;;5056583;28;20024;-65
2023/03/23 00:51:05;;;;;;;7.57;3.97;;;11.80;67.60;;;;;;5056366;28;20027;-65
2023/03/23 00:53:32;;;;;;;10.93;5.07;;;11.90;66.40;;;;;;5056438;28;20028;-65
2023/03/23 00:55:58;;;;;;;9.20;4.38;;;11.80;61.90;;;;;;5056092;28;20053;-65
2023/03/23 00:58:24;;;;;;;10.07;4.82;;;11.80;62.90;;;;;;5056157;28;20390;-65
2023/03/23 01:00:49;;;;;;;9.90;4.20;;;11.90;61.60;;;;;;5056373;28;20029;-65
2023/03/23 01:03:18;;;;;;;6.45;4.45;;;11.80;59.70;;;;;;5056185;28;20472;-65
2023/03/23 01:05:46;;;;;;;8.68;4.13;;;11.90;65.30;;;;;;5056177;28;20025;-65
2023/03/23 01:08:13;;;;;;;9.20;4.32;;;11.80;64.50;;;;;;5056120;28;20100;-65
2023/03/23 01:10:38;;;;;;;8.75;4.28;;;11.80;63.30;;;;;;5056163;28;20025;-65
2023/03/23 01:13:05;;;;;;;9.23;4.05;;;11.80;60.70;;;;;;5056007;28;20108;-65
2023/03/23 01:15:31;;;;;;;6.15;3.80;;;11.90;58.20;;;;;;5055625;28;20021;-65
2023/03/23 01:17:57;;;;;;;9.85;4.05;;;11.90;57.70;;;;;;5055828;28;20036;-65
2023/03/23 01:20:23;;;;;;;7.93;4.45;;;11.90;57.00;;;;;;5055797;28;20032;-65
2023/03/23 01:22:49;;;;;;;8.45;3.63;;;11.90;57.20;;;;;;5055814;28;20534;-65
2023/03/23 01:25:15;;;;;;;6.20;3.70;;;11.80;61.60;;;;;;5055760;28;20048;-65
2023/03/23 01:27:40;;;;;;;6.60;3.97;;;11.80;63.30;;;;;;5055623;28;20103;-65
2023/03/23 01:30:08;;;;;;;7.53;3.70;;;11.80;63.00;;;;;;5055284;28;20111;-65
2023/03/23 01:32:34;;;;;;;8.20;4.15;;;11.90;63.50;;;;;;5055537;28;20036;-65
2023/03/23 01:35:00;;;;;;;6.85;4.00;;;11.90;67.90;;;;;;5055496;28;20033;-65
2023/03/23 01:37:26;;;;;;;8.95;4.10;;;11.80;61.00;;;;;;5055431;28;20032;-65
2023/03/23 01:39:56;;;;;;;10.70;4.50;;;11.80;64.10;;;;;;5055463;28;20379;-65
2023/03/23 01:42:23;;;;;;;6.03;3.95;;;11.80;62.80;;;;;;5055436;28;20494;-65
2023/03/23 01:47:27;;;;;;;6.15;4.25;;;11.80;70.20;;;;;;5111223;27;20345;-64
2023/03/23 01:49:52;;;;;;;8.55;4.00;;;11.80;67.30;;;;;;5111359;28;20465;-65
2023/03/23 01:52:26;;;;;;;9.48;4.05;;;11.80;62.80;;;;;;5111315;28;20035;-64
2023/03/23 01:54:55;;;;;;;7.80;3.92;;;11.90;60.10;;;;;;5111191;28;20019;-64
2023/03/23 01:57:22;;;;;;;11.38;4.03;;;11.80;60.70;;;;;;5111103;28;20036;-64
2023/03/23 01:59:51;;;;;;;12.07;4.53;;;11.80;59.50;;;;;;5110959;28;20374;-64
2023/03/23 02:02:20;;;;;;;9.45;3.92;;;11.90;60.00;;;;;;5111075;28;20459;-65
2023/03/23 02:04:45;;;;;;;8.00;4.22;;;11.90;67.60;;;;;;5110865;28;20024;-64
2023/03/23 02:07:14;;;;;;;7.70;4.22;;;11.90;68.70;;;;;;5110517;28;20069;-65
2023/03/23 02:09:39;;;;;;;6.40;4.00;;;11.90;78.60;;;;;;5110836;28;20047;-66
2023/03/23 02:12:05;;;;;;;5.82;3.53;;;11.80;79.90;;;;;;5110742;28;20016;-65
2023/03/23 02:14:31;;;;;;;8.68;3.85;;;11.80;92.90;;;;;;5110660;28;20024;-65
2023/03/23 02:17:23;;;;;;;6.88;3.88;;;11.70;91.40;;;;;;5110824;28;20114;-65
2023/03/23 02:20:17;;;;;;;5.97;3.63;;;11.70;91.40;;;;;;5110778;28;20031;-65
2023/03/23 02:23:24;;;;;;;7.70;3.60;;;11.60;86.90;;;;;;5110483;28;20031;-65
2023/03/23 02:26:07;;;;;;;6.45;3.53;;;11.60;93.10;;;;;;5110380;28;20370;-65
2023/03/23 02:28:59;;;;;;;7.88;3.90;;;11.50;97.80;;;;;;5110545;28;20031;-64
2023/03/23 02:32:03;;;;;;;5.53;2.92;;;11.60;96.60;;;;;;5110499;28;20123;-65
2023/03/23 02:34:44;;;;;;;7.70;4.05;;;11.60;77.70;;;;;;5110358;28;20052;-64
2023/03/23 02:37:21;;;;;;;4.40;2.90;;;11.70;81.40;;;;;;5110512;28;20028;-65
2023/03/23 02:39:53;;;;;;;5.97;3.13;;;11.70;74.90;;;;;;5110617;28;20181;-64
2023/03/23 02:42:24;;;;;;;8.63;3.03;;;11.70;73.50;;;;;;5110148;28;20055;-64
2023/03/23 02:44:52;;;;;;;6.28;2.72;;;11.70;61.00;;;;;;5110251;28;20024;-65
2023/03/23 02:47:22;;;;;;;3.42;2.58;;;11.80;49.00;;;;;;5109788;28;20048;-65
2023/03/23 02:49:52;;;;;;;5.18;2.47;;;11.80;36.70;;;;;;5110138;28;20051;-65
2023/03/23 02:52:24;;;;;;;3.67;2.50;;;11.80;39.90;;;;;;5109930;28;20129;-65
2023/03/23 02:54:51;;;;;;;5.63;2.40;;;11.80;32.50;;;;;;5110151;28;20036;-64
2023/03/23 02:57:17;;;;;;;2.95;2.40;;;11.80;30.90;;;;;;5105024;28;20478;-65
2023/03/23 02:59:43;;;;;;;6.32;3.05;;;11.80;27.60;;;;;;5096514;28;20027;-64
2023/03/23 03:02:17;;;;;;;4.78;2.65;;;11.80;33.00;;;;;;5096388;28;20111;-64
2023/03/23 03:04:54;;;;;;;3.40;2.67;;;11.80;32.10;;;;;;5096326;28;20032;-64
2023/03/23 03:07:48;;;;;;;8.20;3.38;;;11.70;45.70;;;;;;5095928;28;20028;-65
2023/03/23 03:10:25;;;;;;;7.10;3.47;;;11.70;52.20;;;;;;5096059;28;20066;-65
2023/03/23 03:15:41;;;;;;;6.00;3.70;;;11.60;72.30;;;;;;5111254;27;20407;-64
2023/03/23 03:18:16;;;;;;;6.97;3.85;;;11.60;79.80;;;;;;5111107;28;20034;-65
2023/03/23 03:20:48;;;;;;;8.38;3.78;;;11.60;83.60;;;;;;5111342;28;20024;-65
2023/03/23 03:23:15;;;;;;;4.25;3.30;;;11.60;91.00;;;;;;5111170;28;20023;-65
2023/03/23 03:25:47;;;;;;;3.47;3.00;;;11.60;92.50;;;;;;5110899;28;20485;-65
2023/03/23 03:28:15;;;;;;;4.70;3.40;;;11.50;93.50;;;;;;5111024;28;20449;-65
2023/03/23 03:30:44;;;;;;;4.88;3.13;;;11.50;94.00;;;;;;5111187;28;20023;-64
2023/03/23 03:33:11;;;;;;;4.05;2.97;;;11.50;98.90;;;;;;5111025;28;20389;-64
2023/03/23 03:35:38;;;;;;;6.28;3.45;;;11.40;99.80;;;;;;5111010;28;20035;-64
2023/03/23 03:38:08;;;;;;;7.50;3.47;;;11.40;98.10;;;;;;5110584;28;20035;-64
2023/03/23 03:40:34;;;;;;;4.38;3.65;;;11.50;97.00;;;;;;5110801;28;20039;-64
2023/03/23 03:43:01;;;;;;;6.95;3.67;;;11.50;94.70;;;;;;5110675;28;20031;-64
2023/03/23 03:45:26;;;;;;;4.78;3.05;;;11.60;92.60;;;;;;5110931;28;20069;-64
2023/03/23 03:47:52;;;;;;;5.35;3.58;;;11.50;91.70;;;;;;5110768;28;20031;-64
2023/03/23 03:50:17;;;;;;;6.45;4.32;;;11.60;91.20;;;;;;5110571;28;20115;-64
2023/03/23 03:52:43;;;;;;;7.57;3.53;;;11.60;91.50;;;;;;5110758;28;20042;-65
2023/03/23 03:55:10;;;;;;;4.07;3.30;;;11.50;92.60;;;;;;5110491;28;20024;-65
2023/03/23 03:57:36;;;;;;;4.65;3.40;;;11.60;90.10;;;;;;5110563;28;20028;-64
2023/03/23 04:00:13;;;;;;;4.45;3.28;;;11.60;89.40;;;;;;5110449;28;20027;-65
2023/03/23 04:02:38;;;;;;;4.18;3.40;;;11.60;83.90;;;;;;5110326;28;20500;-65
2023/03/23 04:05:04;;;;;;;5.35;3.50;;;11.60;79.50;;;;;;5110414;28;20036;-64
2023/03/23 04:07:30;;;;;;;3.95;3.30;;;11.70;77.80;;;;;;5110356;28;20043;-64
2023/03/23 04:09:55;;;;;;;5.60;3.28;;;11.60;77.80;;;;;;5110120;28;20501;-64
2023/03/23 04:12:21;;;;;;;5.40;3.55;;;11.60;75.00;;;;;;5110323;28;20031;-64
2023/03/23 04:14:46;;;;;;;5.13;3.70;;;11.70;70.80;;;;;;5109664;28;20121;-65
2023/03/23 04:17:14;;;;;;;6.68;3.33;;;11.70;69.40;;;;;;5110119;28;20035;-65
2023/03/23 04:19:40;;;;;;;7.85;4.07;;;11.60;69.20;;;;;;5109915;28;20100;-65
2023/03/23 04:22:06;;;;;;;5.30;3.40;;;11.60;74.50;;;;;;5109881;28;20027;-64
2023/03/23 04:24:33;;;;;;;4.70;3.67;;;11.60;71.30;;;;;;5109990;28;20028;-64
2023/03/23 04:26:59;;;;;;;5.45;3.20;;;11.70;62.00;;;;;;5096058;28;20028;-64
2023/03/23 04:29:26;;;;;;;5.63;3.33;;;11.70;55.50;;;;;;5096356;28;20075;-64
2023/03/23 04:31:52;;;;;;;4.40;3.30;;;11.80;48.10;;;;;;5095889;28;20371;-69
2023/03/23 04:34:18;;;;;;;7.05;2.90;;;11.80;37.70;;;;;;5096075;28;20107;-64
2023/03/23 04:36:44;;;;;;;3.38;2.88;;;11.90;27.90;;;;;;5096079;28;20058;-64
2023/03/23 04:39:10;;;;;;;4.80;2.65;;;11.90;21.90;;;;;;5094678;28;20016;-64
2023/03/23 04:41:37;;;;;;;3.42;2.65;;;11.90;18.20;;;;;;5096136;28;20039;-64
2023/03/23 04:44:04;;;;;;;3.20;2.55;;;12.00;11.20;;;;;;5096097;28;20023;-64
2023/03/23 04:46:30;;;;;;;3.63;2.40;;;12.00;13.80;;;;;;5095842;28;20397;-64
2023/03/23 04:48:58;;;;;;;4.50;2.50;;;12.00;8.40;;;;;;5095612;28;20035;-64
2023/03/23 04:51:25;;;;;;;3.78;2.55;;;12.00;7.50;;;;;;5095839;28;20103;-65
2023/03/23 04:53:52;;;;;;;3.45;2.28;;;12.00;10.40;;;;;;5095773;28;20024;-64
2023/03/23 04:56:18;;;;;;;4.15;2.67;;;12.00;8.30;;;;;;5095887;28;20020;-64
2023/03/23 04:58:44;;;;;;;4.50;2.58;;;12.00;10.50;;;;;;5095847;28;20063;-64
2023/03/23 05:01:13;;;;;;;3.47;2.63;;;11.90;14.10;;;;;;5095952;28;20035;-64
2023/03/23 05:03:39;;;;;;;4.90;2.60;;;11.90;16.60;;;;;;5094555;28;20027;-64
2023/03/23 05:06:06;;;;;;;4.35;2.47;;;11.90;16.60;;;;;;5095450;28;20390;-64
2023/03/23 05:08:31;;;;;;;4.15;2.60;;;11.90;18.30;;;;;;5095418;28;20533;-64
2023/03/23 05:10:59;;;;;;;4.68;2.45;;;11.90;16.80;;;;;;5095172;28;20103;-64
2023/03/23 05:13:27;;;;;;;4.82;2.47;;;11.90;15.90;;;;;;5095283;28;20028;-64
2023/03/23 05:15:52;;;;;;;3.90;2.55;;;11.90;15.20;;;;;;5095066;28;20020;-66
2023/03/23 05:18:20;;;;;;;3.42;2.53;;;11.90;15.80;;;;;;5095404;28;20557;-64
2023/03/23 05:20:46;;;;;;;4.00;2.60;;;11.90;17.40;;;;;;5095546;28;20047;-65
2023/03/23 05:23:12;;;;;;;3.78;2.58;;;12.00;7.30;;;;;;5095464;28;20024;-64
2023/03/23 05:25:40;;;;;;;5.35;2.42;;;12.00;6.80;;;;;;5095443;28;20092;-64
2023/03/23 05:28:07;;;;;;;3.35;2.78;;;12.00;8.30;;;;;;5095025;28;20020;-64
2023/03/23 05:30:33;;;;;;;6.43;2.30;;;12.00;7.70;;;;;;5094952;28;20031;-64
2023/03/23 05:32:59;;;;;;;3.03;2.35;;;12.00;9.40;;;;;;5095115;28;20109;-64
2023/03/23 05:35:25;;;;;;;4.45;2.45;;;12.00;6.90;;;;;;5094936;28;20043;-64
2023/03/23 05:37:53;;;;;;;3.15;2.60;;;12.00;8.00;;;;;;5094074;28;20031;-64
2023/03/23 05:40:20;;;;;;;3.38;2.70;;;12.00;1.30;;;;;;5095069;28;20024;-64
2023/03/23 05:42:47;;;;;;;3.13;2.13;;;12.00;1.00;;;;;;5094726;28;20056;-64
2023/03/23 05:45:12;;;;;;;3.45;2.58;;;12.00;1.40;;;;;;5094438;28;20032;-64
2023/03/23 05:47:39;;;;;;;3.80;2.50;;;12.00;1.00;;;;;;5094584;28;20079;-64
2023/03/23 05:50:08;;;;;;;3.55;2.60;;;12.00;1.00;;;;;;5094522;28;20024;-64
2023/03/23 05:52:35;;;;;;;3.40;2.38;;;12.00;1.00;;;;;;5094552;28;20382;-65
2023/03/23 05:55:01;;;;;;;4.22;2.40;;;12.00;1.00;;;;;;5094451;28;20111;-64
2023/03/23 05:57:27;;;;;;;4.55;2.72;;;12.10;1.00;;;;;;5094524;28;20107;-64
2023/03/23 05:59:53;;;;;;;7.07;2.67;;;12.10;1.00;;;;;;5094247;28;20086;-64
2023/03/23 06:02:18;;;;;;;9.30;2.83;;;12.10;1.00;;;;;;5094619;28;20024;-64
2023/03/23 06:04:44;;;;;;;5.47;2.90;;;12.20;1.00;;;;;;5094468;28;20031;-65
2023/03/23 06:07:13;;;;;;;4.82;2.97;;;12.10;1.00;;;;;;5094427;28;20389;-64
2023/03/23 06:09:40;;;;;;;4.90;2.90;;;12.10;1.00;;;;;;5094460;28;20035;-64
2023/03/23 06:12:06;;;;;;;4.72;2.88;;;12.10;1.00;;;;;;5094381;28;20474;-64
2023/03/23 06:14:32;;;;;;;4.18;2.30;;;12.00;1.00;;;;;;5093924;28;20040;-64
2023/03/23 06:16:57;;;;;;;8.18;2.78;;;12.00;1.00;;;;;;5094120;28;20046;-64
2023/03/23 06:19:23;;;;;;;3.88;2.55;;;12.00;1.00;;;;;;5094106;28;20094;-64
2023/03/23 06:21:48;;;;;;;3.70;2.50;;;12.00;1.00;;;;;;5094132;28;20023;-64
2023/03/23 06:24:14;;;;;;;4.03;2.58;;;12.00;1.00;;;;;;5094165;28;20363;-65
2023/03/23 06:26:41;;;;;;;2.72;2.50;;;12.10;1.00;;;;;;5094066;28;20393;-64
2023/03/23 06:29:10;;;;;;;4.13;2.35;;;12.10;1.00;;;;;;5094016;28;20020;-64
2023/03/23 06:31:40;;;;;;;3.75;2.78;;;12.10;1.00;;;;;;5094063;28;20081;-64
2023/03/23 06:34:06;;;;;;;3.72;2.50;;;12.20;1.00;;;;;;5093821;28;20517;-64
2023/03/23 06:36:31;;;;;;;4.85;2.80;;;12.20;1.00;;;;;;5093806;28;20024;-64
2023/03/23 06:38:57;;;;;;;4.15;2.95;;;12.20;1.00;;;;;;5093809;28;20423;-64
2023/03/23 06:41:22;;;;;;;4.35;3.15;;;12.30;1.00;;;;;;5093664;28;20073;-64
2023/03/23 06:43:48;;;;;;;4.88;3.13;;;12.30;1.00;;;;;;5093869;28;20085;-65
2023/03/23 06:46:13;;;;;;;4.60;2.60;;;12.30;1.00;;;;;;5093704;28;20032;-65
2023/03/23 06:48:39;;;;;;;7.00;3.30;;;12.20;1.00;;;;;;5093281;28;20038;-65
2023/03/23 06:51:05;;;;;;;5.63;3.47;;;12.20;1.00;;;;;;5089993;28;20024;-64
2023/03/23 06:53:31;;;;;;;4.63;3.03;;;12.10;1.00;;;;;;5088835;28;20038;-65
2023/03/23 06:55:56;;;;;;;5.70;3.45;;;12.10;6.30;;;;;;5093406;28;20032;-64
2023/03/23 06:58:23;;;;;;;6.78;3.40;;;12.10;17.50;;;;;;5089272;28;20614;-64
2023/03/23 07:00:54;;;;;;;6.63;3.38;;;12.10;26.20;;;;;;5093039;28;20024;-64
2023/03/23 07:03:19;;;;;;;8.27;3.80;;;12.10;23.60;;;;;;5090796;28;20386;-64
2023/03/23 07:05:47;;;;;;;4.63;3.28;;;12.10;29.50;;;;;;5097511;28;20027;-64
2023/03/23 07:08:13;;;;;;;4.97;3.28;;;12.20;22.10;;;;;;5112730;28;20031;-65
2023/03/23 07:10:38;;;;;;;8.38;3.97;;;12.10;29.30;;;;;;5104547;28;20032;-66
2023/03/23 07:13:04;;;;;;;6.15;3.65;;;12.20;32.90;;;;;;5093152;28;20050;-65
2023/03/23 07:15:30;;;;;;;7.00;4.20;;;12.20;25.30;;;;;;5092987;28;20040;-64
2023/03/23 07:17:56;;;;;;;7.55;3.53;;;12.20;25.80;;;;;;5093574;28;20055;-65
2023/03/23 07:20:22;;;;;;;8.32;3.63;;;12.20;11.90;;;;;;5093257;28;20056;-65
2023/03/23 07:22:47;;;;;;;5.05;3.20;;;12.30;7.00;;;;;;5092462;28;20028;-65
2023/03/23 07:25:13;;;;;;;7.38;3.70;;;12.40;1.00;;;;;;5090230;28;20358;-65
2023/03/23 07:27:39;;;;;;;6.53;3.47;;;12.50;1.00;;;;;;5092984;28;20106;-64
2023/03/23 07:30:05;;;;;;;6.63;3.05;;;12.60;1.00;;;;;;5093046;28;20031;-65
2023/03/23 07:32:31;;;;;;;7.65;3.20;;;12.70;1.00;;;;;;5092997;28;20024;-65
2023/03/23 07:34:56;;;;;;;4.18;3.03;;;12.80;1.00;;;;;;5091992;28;20035;-65
2023/03/23 07:37:22;;;;;;;5.50;3.00;;;12.80;1.00;;;;;;5093153;28;20032;-65
2023/03/23 07:39:48;;;;;;;6.32;3.17;;;12.90;1.00;;;;;;5092664;28;20554;-66
2023/03/23 07:42:13;;;;;;;5.72;3.00;;;12.90;1.00;;;;;;5093054;28;20020;-64
2023/03/23 07:44:39;;;;;;;6.97;3.08;;;12.90;1.00;;;;;;5092743;28;20146;-65
2023/03/23 07:47:05;;;;;;;5.18;2.72;;;13.00;1.00;;;;;;5092964;28;20025;-65
2023/03/23 07:49:30;;;;;;;9.05;3.17;;;13.10;1.00;;;;;;5088919;28;20038;-66
2023/03/23 07:51:57;;;;;;;6.75;2.95;;;13.10;1.00;;;;;;5092744;28;20551;-65
2023/03/23 07:54:23;;;;;;;9.05;4.60;;;13.10;99.90;;;;;;5089812;28;20385;-65
2023/03/23 07:56:49;;;;;;;3.72;2.40;;;13.10;99.90;;;;;;5089984;28;20020;-65
2023/03/23 07:59:15;;;;;;;7.55;2.63;;;13.10;99.90;;;;;;5090252;28;20027;-66
2023/03/23 08:01:40;;;;;;;5.47;2.50;;;13.20;99.90;;;;;;5094795;28;20024;-65
2023/03/23 08:04:07;;;;;;;7.53;2.63;;;13.20;99.90;;;;;;5081496;28;20558;-65
2023/03/23 08:06:34;;;;;;;6.55;2.85;;;13.30;99.90;;;;;;5075657;28;20482;-65
2023/03/23 08:08:59;;;;;;;7.30;2.78;;;13.30;99.90;;;;;;5083963;28;20495;-66
2023/03/23 08:11:26;;;;;;;6.45;2.63;;;13.30;99.90;;;;;;5096594;28;20055;-66
2023/03/23 08:13:52;;;;;;;9.13;2.72;;;13.30;99.90;;;;;;5095428;28;20110;-66
2023/03/23 08:16:19;;;;;;;6.50;2.97;;;13.40;99.90;;;;;;5096538;28;20039;-65
2023/03/23 08:18:46;;;;;;;6.18;2.38;;;13.30;99.90;;;;;;5095201;28;20039;-64
2023/03/23 08:21:12;;;;;;;8.02;2.75;;;13.40;99.90;;;;;;5070228;28;20021;-68
2023/03/23 08:23:38;;;;;;;4.78;2.47;;;13.40;99.90;;;;;;5084546;28;20051;-65
2023/03/23 08:26:07;;;;;;;7.82;2.75;;;13.50;99.90;;;;;;5082243;28;20479;-65
2023/03/23 08:28:34;;;;;;;8.02;2.88;;;13.60;99.90;;;;;;5066741;28;20973;-65
2023/03/23 08:31:06;;;;;;;5.28;2.08;;;13.50;99.90;;;;;;5065997;28;20376;-65
2023/03/23 08:33:33;;;;;;;4.82;2.33;;;13.60;99.90;;;;;;5059170;28;20630;-65
2023/03/23 08:35:59;;;;;;;6.07;2.50;;;13.60;99.90;;;;;;5063142;28;20112;-66
2023/03/23 08:38:25;;;;;;;8.60;2.67;;;13.60;99.90;;;;;;5068494;28;20029;-65
2023/03/23 08:40:52;;;;;;;8.30;2.28;;;13.60;99.90;;;;;;5066738;28;20024;-65
2023/03/23 08:43:17;;;;;;;3.88;2.17;;;13.60;99.90;;;;;;5084081;28;20050;-65
2023/03/23 08:45:43;;;;;;;5.68;2.30;;;13.70;99.90;;;;;;5068453;28;20028;-67
2023/03/23 08:48:10;;;;;;;6.50;2.30;;;13.60;67.00;;;;;;5062248;28;20613;-65
2023/03/23 08:50:36;;;;;;;4.80;2.38;;;13.80;99.90;;;;;;5069806;28;20060;-64
2023/03/23 08:53:02;;;;;;;6.55;2.45;;;13.80;52.90;;;;;;5069273;28;20501;-64
2023/03/23 08:55:28;;;;;;;6.47;2.38;;;13.80;1.00;;;;;;5071423;28;20075;-65
2023/03/23 08:57:55;;;;;;;6.75;2.28;;;14.00;1.00;;;;;;5072547;28;20155;-64
2023/03/23 09:00:24;;;;;;;5.70;2.45;;;14.20;1.00;;;;;;5074748;28;20029;-65
2023/03/23 09:02:52;;;;;;;7.60;2.33;;;14.60;99.90;;;;;;5070239;28;20484;-65
2023/03/23 09:05:21;;;;;;;7.15;2.60;;;14.70;99.90;;;;;;5059442;28;20031;-67
2023/03/23 09:07:49;;;;;;;7.80;2.65;;;14.70;99.90;;;;;;5060218;28;20048;-65
2023/03/23 09:10:15;;;;;;;6.65;2.58;;;14.60;99.90;;;;;;5067438;28;20107;-66
2023/03/23 09:12:42;;;;;;;6.35;2.90;;;14.60;99.90;;;;;;5062828;28;20033;-68
2023/03/23 09:15:10;;;;;;;5.63;2.33;;;14.50;99.90;;;;;;5074677;28;20049;-68
2023/03/23 09:17:38;;;;;;;6.82;2.75;;;14.30;99.90;;;;;;5074807;28;20029;-69
2023/03/23 09:20:11;;;;;;;7.30;2.80;;;14.30;99.90;;;;;;5067949;28;20052;-69
2023/03/23 09:22:38;;;;;;;7.50;2.95;;;14.40;99.90;;;;;;5074830;28;20021;-68
2023/03/23 09:25:04;;;;;;;7.45;2.47;;;14.30;99.90;;;;;;5057692;28;20119;-68
2023/03/23 09:27:30;;;;;;;8.68;2.78;;;14.30;99.90;;;;;;5074105;28;20093;-68
2023/03/23 09:29:55;;;;;;;5.45;2.78;;;14.10;99.90;;;;;;5074606;28;20036;-68
2023/03/23 09:32:22;;;;;;;5.15;2.70;;;14.10;99.90;;;;;;5076226;28;20032;-68
2023/03/23 09:34:48;;;;;;;6.65;2.83;;;14.10;99.90;;;;;;5076974;28;20393;-68
2023/03/23 09:37:14;;;;;;;4.22;2.28;;;14.10;99.90;;;;;;5076453;28;20021;-68
2023/03/23 09:39:39;;;;;;;7.20;3.15;;;14.00;99.90;;;;;;5068600;28;20028;-68
2023/03/23 09:42:30;;;;;;;5.85;2.58;;;14.10;99.90;;;;;;5058259;28;20471;-71
2023/03/23 09:45:10;;;;;;;9.65;3.35;;;14.00;99.90;;;;;;5058129;28;20409;-69
2023/03/23 09:47:46;;;;;;;5.10;2.22;;;14.00;99.90;;;;;;5054009;28;20033;-67
2023/03/23 09:50:18;;;;;;;8.35;2.88;;;14.00;99.90;;;;;;5064841;28;20033;-72
2023/03/23 09:52:50;;;;;;;6.28;2.30;;;14.00;99.90;;;;;;5055073;28;20105;-68
2023/03/23 09:55:19;;;;;;;8.02;2.88;;;14.00;99.90;;;;;;5056182;28;20115;-69
2023/03/23 09:57:59;;;;;;;9.57;2.70;;;14.00;99.90;;;;;;5059660;28;20163;-69
2023/03/23 10:00:31;;;;;;;7.45;2.70;;;14.10;99.90;;;;;;5065893;28;20036;-70
2023/03/23 10:03:18;;;;;;;14.45;3.15;;;14.40;93.80;;;;;;5056566;28;20055;-69
2023/03/23 10:05:49;;;;;;;8.55;2.38;;;14.30;91.30;;;;;;5056924;28;20420;-68
2023/03/23 10:08:18;;;;;;;7.40;2.53;;;14.30;99.90;;;;;;5059824;28;20020;-68
2023/03/23 10:13:52;;;;;;;10.48;2.78;;;14.20;94.00;;;;;;5091616;28;20398;-68
2023/03/23 10:16:22;;;;;;;8.20;2.95;;;14.20;99.90;;;;;;5059017;28;20041;-69
2023/03/23 10:18:58;;;;;;;12.45;3.38;;;14.30;70.10;;;;;;5056723;28;20376;-72
2023/03/23 10:21:26;;;;;;;8.95;3.28;;;14.30;30.30;;;;;;5059603;28;20032;-69
2023/03/23 10:24:00;;;;;;;11.07;2.70;;;14.30;66.60;;;;;;5062575;28;20055;-72
2023/03/23 10:26:55;;;;;;;10.48;2.97;;;14.40;99.40;;;;;;5069361;28;20029;-68
2023/03/23 10:29:26;;;;;;;9.00;2.90;;;14.40;63.90;;;;;;5067493;28;20029;-67
2023/03/23 10:32:08;;;;;;;9.95;2.78;;;14.40;58.80;;;;;;5067585;28;20127;-68
2023/03/23 10:34:57;;;;;;;7.65;3.03;;;14.20;95.20;;;;;;5067940;28;20095;-68
2023/03/23 10:37:31;;;;;;;6.25;1.70;;;14.10;99.90;;;;;;5064951;28;20033;-68
2023/03/23 10:39:59;;;;;;;2.10;1.00;;;13.20;36.20;;;;;;5060035;28;20139;-69
2023/03/23 10:42:34;;;;;;;3.33;1.35;;;12.30;99.90;;;;;;5068658;28;20453;-68
2023/03/23 10:45:11;;;;;;;4.13;1.15;;;11.40;1.00;;;;;;5068635;28;20086;-69
2023/03/23 10:47:39;;;;;;;2.10;1.05;;;11.20;1.00;;;;;;5059411;28;20033;-69
2023/03/23 10:50:12;;;;;;;4.15;1.30;;;10.90;8.30;;;;;;5061628;28;20036;-68
2023/03/23 10:52:40;;;;;;;2.20;1.17;;;10.90;23.80;;;;;;5059859;28;20025;-68
2023/03/23 10:55:15;;;;;;;2.92;1.05;;;10.80;46.20;;;;;;5068616;28;20329;-68
2023/03/23 10:57:44;;;;;;;3.60;1.38;;;10.80;29.90;;;;;;5068947;28;20020;-65
2023/03/23 11:00:21;;;;;;;5.05;1.33;;;10.90;33.70;;;;;;5063068;28;20414;-66
2023/03/23 11:03:05;;;;;;;3.92;1.23;;;10.80;26.80;;;;;;5062452;28;20571;-64
2023/03/23 11:05:43;;;;;;;3.40;1.35;;;10.80;41.60;;;;;;5057158;28;20025;-65
2023/03/23 11:08:20;;;;;;;12.05;4.78;;;10.90;41.50;;;;;;5064140;28;20102;-66
2023/03/23 11:10:55;;;;;;;6.25;3.42;;;10.90;49.60;;;;;;5058507;28;20040;-69
2023/03/23 11:13:24;;;;;;;4.20;1.60;;;10.90;39.90;;;;;;5059789;28;20043;-66
2023/03/23 11:15:50;;;;;;;3.47;1.50;;;10.90;47.70;;;;;;5056954;28;20548;-65
2023/03/23 11:18:26;;;;;;;8.40;4.82;;;11.00;46.50;;;;;;5061375;28;20029;-65
2023/03/23 11:20:56;;;;;;;8.50;3.50;;;11.00;55.90;;;;;;5068426;28;20108;-65
2023/03/23 11:26:15;;;;;;;17.00;11.38;;;10.90;40.10;;;;;;5109758;27;20424;-63
2023/03/23 11:28:46;;;;;;;8.75;5.25;;;11.00;36.90;;;;;;5108233;28;20073;-63
2023/03/23 11:31:12;;;;;;;18.77;14.20;;;11.00;35.30;;;;;;5101168;28;20536;-64
2023/03/23 11:33:48;;;;;;;13.70;10.65;;;11.00;41.70;;;;;;5095880;28;20146;-67
2023/03/23 11:36:15;;;;;;;8.25;2.50;;;11.00;57.30;;;;;;5095252;28;20024;-65
2023/03/23 11:38:42;;;;;;;7.63;2.92;;;11.00;41.90;;;;;;5094986;28;20190;-66
2023/03/23 11:41:11;;;;;;;5.07;2.17;;;11.20;41.90;;;;;;5084015;28;20024;-65
2023/03/23 11:43:43;;;;;;;3.90;2.70;;;11.20;35.80;;;;;;5092230;28;20416;-65
2023/03/23 11:46:32;;;;;;;7.32;3.03;;;11.20;53.20;;;;;;5102103;28;20031;-68
2023/03/23 11:49:02;;;;;;;9.75;3.90;;;11.60;48.30;;;;;;5071161;28;20029;-66
2023/03/23 11:52:01;;;;;;;7.88;3.00;;;11.60;31.80;;;;;;5103485;28;20465;-65
2023/03/23 11:54:33;;;;;;;9.13;2.97;;;11.50;22.70;;;;;;5106147;28;20045;-65
2023/03/23 11:56:59;;;;;;;6.60;2.70;;;11.40;38.10;;;;;;5107524;28;20487;-65
2023/03/23 12:02:35;;;;;;;8.90;3.22;;;11.30;70.40;;;;;;5098337;27;20401;-65
2023/03/23 12:05:40;;;;;;;6.72;2.70;;;11.20;77.40;;;;;;5105330;28;20131;-65
2023/03/23 12:17:09;;;;;;;4.22;2.20;;;11.30;85.50;;;;;;5087841;27;21820;-66
2023/03/23 12:20:16;;;;;;;8.30;2.60;;;11.20;92.80;;;;;;5087837;28;20028;-65
2023/03/23 12:23:13;;;;;;;7.47;2.67;;;11.20;93.30;;;;;;5086763;28;20094;-65
2023/03/23 12:29:02;;;;;;;3.80;2.42;;;11.10;99.90;;;;;;5109651;27;20404;-66
2023/03/23 12:32:00;;;;;;;9.00;5.90;;;11.00;93.60;;;;;;5103122;28;20398;-65
2023/03/23 12:34:41;;;;;;;16.00;12.02;;;11.00;99.90;;;;;;5108694;28;20028;-64
2023/03/23 12:40:28;;;;;;;5.47;2.97;;;11.10;99.90;;;;;;5107481;27;20465;-66
2023/03/23 12:46:01;;;;;;;6.85;2.70;;;11.00;99.90;;;;;;5087525;28;20455;-66
2023/03/23 12:48:31;;;;;;;7.50;2.40;;;11.00;99.90;;;;;;5087517;28;20541;-65
2023/03/23 12:53:46;;;;;;;3.15;2.42;;;11.00;99.90;;;;;;5065149;28;20411;-64
2023/03/23 12:56:23;;;;;;;8.07;3.30;;;11.00;99.90;;;;;;5041382;28;20025;-64
2023/03/23 12:58:56;;;;;;;8.20;4.13;;;11.00;99.90;;;;;;5063131;28;20491;-65
2023/03/23 13:01:29;;;;;;;7.13;4.70;;;10.90;99.90;;;;;;5043992;28;20025;-64
2023/03/23 13:04:16;;;;;;;9.38;5.22;;;10.80;99.90;;;;;;5056078;28;20040;-66
2023/03/23 13:06:46;;;;;;;10.57;7.60;;;10.90;99.90;;;;;;5048551;28;20029;-65
2023/03/23 13:09:38;;;;;;;10.38;7.65;;;10.90;99.90;;;;;;5056744;28;20059;-65
2023/03/23 13:12:08;;;;;;;12.63;8.18;;;11.00;99.90;;;;;;5046637;28;20541;-65
2023/03/23 13:15:00;;;;;;;14.15;8.43;;;11.10;99.90;;;;;;5047631;28;20033;-65
2023/03/23 13:17:46;;;;;;;13.65;8.63;;;11.10;99.90;;;;;;5046454;28;20128;-67
2023/03/23 13:20:37;;;;;;;12.60;8.55;;;11.00;99.90;;;;;;5053261;28;20103;-66
2023/03/23 13:23:14;;;;;;;16.70;9.52;;;11.00;99.90;;;;;;5052985;28;20032;-67
2023/03/23 13:25:49;;;;;;;12.38;8.63;;;11.20;99.90;;;;;;5057598;28;20087;-66
2023/03/23 13:28:22;;;;;;;13.48;8.73;;;11.40;99.90;;;;;;5062252;28;20036;-66
2023/03/23 13:31:12;;;;;;;11.50;8.65;;;11.50;99.90;;;;;;5062018;28;20494;-66
2023/03/23 13:33:38;;;;;;;16.70;8.80;;;11.60;99.90;;;;;;5049635;28;20034;-66
2023/03/23 13:36:10;;;;;;;9.32;7.57;;;11.60;99.90;;;;;;5059611;28;20471;-67
2023/03/23 13:38:37;;;;;;;13.57;8.07;;;11.60;99.90;;;;;;5046684;28;20368;-68